Bay Point, New York
Current Conditions -  °F | °C
As of 8:53 PM on Thursday 20 Nov 2014 (Local Time) from KFOK Reporting Station
Broken Clouds Broken Clouds  
Wind Chill: 30°   Ceiling: 9500
Heat Index: 38°   Visibility: 10mi
Dew Point: 14°   Wind: 12mph
Humidity: 38%   Direction: 280°W
Pressure: 29.94"   Gusts: NA
Location:  40.9692°N, 72.306°W
Report Text: KFOK 210153Z 28010KT 10SM BKN095 03/M10 A2994 RMK AO2 SLP138 T00331100
Loading
Personal Weather Stations






























Interactive Weather Map New forecast layout! Learn more

10-Day Weather Forecast

Advertisements
Track Severe Weather on mobile